English, West Virginia
Current Conditions -  °F | °C
As of 8:55 AM on Saturday 25 Oct 2014 (Local Time) from KJFZ Reporting Station
Clear Clear  
Wind Chill:   Ceiling: Unl
Heat Index:   Visibility: 10mi
Dew Point:   Wind: 3mph
Humidity: 80%   Direction: 280°W
Pressure: 30.09"   Gusts: NA
Location:  37.34°N, 81.72°W
Report Text: KJFZ 251255Z AUTO 28003KT 10SM CLR 08/05 A3009 RMK AO2 T00780046
Loading
Personal Weather Stations






























Interactive Weather Map
Tropical Storm Tracking
New forecast layout! Learn more

10-Day Weather Forecast

Advertisements
Track Severe Weather on mobile